createdAt,value
2017-11-23T00:00:11.860Z,13.00
2017-11-23T00:02:40.957Z,13.10
2017-11-23T00:05:10.124Z,11.30
2017-11-23T00:07:38.396Z,16.33
2017-11-23T00:10:06.681Z,10.87
2017-11-23T00:12:36.542Z,17.23
2017-11-23T00:15:04.867Z,15.57
2017-11-23T00:17:33.179Z,14.47
2017-11-23T00:20:02.276Z,16.90
2017-11-23T00:22:31.367Z,12.03
2017-11-23T00:24:59.631Z,24.83
2017-11-23T00:27:27.921Z,12.80
2017-11-23T00:29:56.241Z,12.27
2017-11-23T00:32:24.536Z,11.97
2017-11-23T00:34:52.821Z,9.52
2017-11-23T00:37:21.115Z,15.13
2017-11-23T00:39:49.389Z,16.27
2017-11-23T00:42:17.680Z,13.60
2017-11-23T00:44:46.026Z,18.13
2017-11-23T00:47:14.345Z,11.37
2017-11-23T00:49:42.621Z,13.70
2017-11-23T00:52:11.931Z,18.33
2017-11-23T00:54:40.240Z,10.57
2017-11-23T00:57:08.536Z,10.20
2017-11-23T00:59:39.003Z,12.40
2017-11-23T01:02:07.333Z,14.20
2017-11-23T01:04:35.622Z,14.00
2017-11-23T01:07:03.912Z,16.30
2017-11-23T01:09:32.217Z,16.07
2017-11-23T01:12:00.775Z,12.30
2017-11-23T01:14:29.093Z,12.03
2017-11-23T01:16:58.195Z,13.90
2017-11-23T01:19:28.268Z,17.50
2017-11-23T01:22:01.914Z,9.90
2017-11-23T01:24:31.060Z,12.33
2017-11-23T01:26:59.853Z,11.97
2017-11-23T01:29:28.145Z,13.13
2017-11-23T01:31:56.453Z,13.67
2017-11-23T01:34:24.831Z,11.00
2017-11-23T01:36:53.998Z,8.53
2017-11-23T01:39:22.317Z,10.43
2017-11-23T01:41:51.416Z,18.90
2017-11-23T01:44:20.604Z,11.77
2017-11-23T01:46:48.923Z,22.53
2017-11-23T01:49:17.369Z,10.23
2017-11-23T01:51:46.432Z,9.37
2017-11-23T01:54:14.847Z,11.30
2017-11-23T01:56:43.937Z,9.82
2017-11-23T01:59:12.214Z,12.77
2017-11-23T02:01:40.549Z,10.70
2017-11-23T02:04:08.917Z,11.27
2017-11-23T02:06:37.243Z,20.57
2017-11-23T02:09:05.514Z,9.57
2017-11-23T02:11:33.807Z,7.23
2017-11-23T02:14:02.146Z,13.60
2017-11-23T02:16:30.463Z,8.37
2017-11-23T02:18:58.735Z,10.10
2017-11-23T02:21:27.169Z,10.17
2017-11-23T02:23:55.450Z,13.30
2017-11-23T02:26:23.777Z,10.00
2017-11-23T02:28:52.162Z,10.40
2017-11-23T02:31:21.669Z,12.70
2017-11-23T02:33:50.808Z,9.63
2017-11-23T02:36:19.156Z,15.73
2017-11-23T02:38:48.247Z,9.70
2017-11-23T02:41:17.531Z,10.70
2017-11-23T02:43:46.789Z,12.82
2017-11-23T02:46:15.291Z,13.70
2017-11-23T02:48:43.602Z,13.77
2017-11-23T02:51:12.038Z,11.50
2017-11-23T02:53:40.565Z,13.30
2017-11-23T02:56:09.151Z,13.82
2017-11-23T02:58:38.386Z,11.87
2017-11-23T03:01:10.979Z,12.37
2017-11-23T03:03:40.324Z,9.20
2017-11-23T03:06:08.782Z,12.37
2017-11-23T03:08:37.291Z,11.10
2017-11-23T03:11:05.737Z,11.37
2017-11-23T03:13:34.039Z,15.57
2017-11-23T03:16:02.664Z,10.30
2017-11-23T03:18:32.344Z,10.63
2017-11-23T03:21:00.617Z,11.23
2017-11-23T03:23:29.009Z,10.43
2017-11-23T03:25:57.390Z,8.70
2017-11-23T03:28:25.703Z,11.73
2017-11-23T03:30:54.548Z,9.43
2017-11-23T03:33:22.942Z,10.20
2017-11-23T03:35:52.198Z,12.87
2017-11-23T03:38:20.617Z,10.73
2017-11-23T03:40:49.035Z,10.80
2017-11-23T03:43:19.376Z,8.97
2017-11-23T03:45:47.743Z,11.50
2017-11-23T03:48:16.089Z,10.33
2017-11-23T03:50:44.427Z,14.87
2017-11-23T03:53:12.738Z,12.30
2017-11-23T03:55:41.254Z,10.57
2017-11-23T03:58:11.877Z,9.27
2017-11-23T04:00:41.096Z,11.87
2017-11-23T04:03:10.262Z,11.57
2017-11-23T04:05:38.749Z,15.50
2017-11-23T04:08:07.084Z,9.70
2017-11-23T04:10:35.438Z,11.40
2017-11-23T04:13:03.876Z,14.33
2017-11-23T04:15:32.174Z,14.80
2017-11-23T04:18:03.106Z,14.60
2017-11-23T04:20:31.761Z,19.60
2017-11-23T04:23:01.004Z,10.23
2017-11-23T04:25:30.238Z,10.73
2017-11-23T04:27:58.827Z,15.47
2017-11-23T04:30:28.794Z,12.60
2017-11-23T04:32:57.392Z,14.20
2017-11-23T04:35:26.524Z,16.87
2017-11-23T04:37:54.863Z,19.87
2017-11-23T04:40:24.238Z,20.27
2017-11-23T04:42:52.901Z,14.70
2017-11-23T04:45:21.216Z,14.50
2017-11-23T04:47:50.496Z,14.97
2017-11-23T04:50:18.957Z,16.10
2017-11-23T04:52:47.279Z,18.40
2017-11-23T04:55:15.579Z,16.53
2017-11-23T04:57:44.914Z,16.03
2017-11-23T05:00:13.208Z,17.13
2017-11-23T05:02:41.544Z,15.13
2017-11-23T05:05:10.593Z,16.53
2017-11-23T05:07:38.899Z,15.73
2017-11-23T05:10:07.221Z,13.77
2017-11-23T05:12:35.516Z,15.70
2017-11-23T05:15:03.936Z,18.73
2017-11-23T05:17:32.317Z,12.53
2017-11-23T05:20:01.486Z,16.87
2017-11-23T05:22:29.798Z,14.70
2017-11-23T05:24:58.965Z,14.10
2017-11-23T05:27:28.421Z,12.63
2017-11-23T05:29:57.174Z,15.60
2017-11-23T05:32:25.653Z,20.12
2017-11-23T05:34:54.475Z,11.83
2017-11-23T05:37:24.169Z,14.53
2017-11-23T05:39:52.424Z,16.00
2017-11-23T05:42:20.716Z,12.20
2017-11-23T05:44:48.990Z,12.50
2017-11-23T05:47:17.304Z,16.40
2017-11-23T05:49:46.360Z,13.20
2017-11-23T05:52:14.656Z,18.30
2017-11-23T05:54:42.938Z,17.90
2017-11-23T05:57:11.439Z,11.33
2017-11-23T05:59:39.830Z,15.47
2017-11-23T06:02:08.172Z,13.20
2017-11-23T06:04:36.432Z,14.53
2017-11-23T06:07:04.854Z,17.50
2017-11-23T06:09:33.155Z,12.27
2017-11-23T06:12:01.840Z,14.93
2017-11-23T06:14:30.166Z,11.25
2017-11-23T06:16:58.484Z,18.80
2017-11-23T06:19:27.033Z,22.03
2017-11-23T06:21:55.303Z,15.00
2017-11-23T06:24:23.878Z,13.43
2017-11-23T06:26:52.176Z,21.80
2017-11-23T06:29:20.435Z,18.63
2017-11-23T06:31:48.739Z,17.80
2017-11-23T06:34:17.144Z,16.15
2017-11-23T06:36:45.716Z,22.77
2017-11-23T06:39:14.770Z,12.55
2017-11-23T06:41:43.048Z,14.00
2017-11-23T06:44:11.349Z,12.27
2017-11-23T06:46:39.609Z,14.53
2017-11-23T06:49:07.913Z,11.65
2017-11-23T06:51:36.267Z,13.70
2017-11-23T06:54:04.562Z,12.30
2017-11-23T06:56:32.890Z,16.30
2017-11-23T06:59:01.184Z,14.80
2017-11-23T07:01:29.476Z,14.33
2017-11-23T07:03:57.752Z,13.97
2017-11-23T07:06:26.009Z,20.93
2017-11-23T07:08:55.026Z,14.50
2017-11-23T07:11:23.284Z,14.80
2017-11-23T07:13:51.565Z,10.43
2017-11-23T07:16:19.833Z,18.23
2017-11-23T07:18:48.127Z,15.37
2017-11-23T07:21:16.400Z,14.20
2017-11-23T07:23:44.691Z,14.43
2017-11-23T07:26:12.952Z,13.80
2017-11-23T07:28:41.220Z,15.70
2017-11-23T07:31:09.497Z,22.43
2017-11-23T07:33:37.777Z,15.93
2017-11-23T07:36:06.078Z,14.13
2017-11-23T07:38:34.358Z,24.33
2017-11-23T07:41:02.651Z,14.90
2017-11-23T07:43:30.941Z,24.87
2017-11-23T07:45:59.230Z,14.63
2017-11-23T07:48:28.264Z,19.90
2017-11-23T07:50:56.603Z,17.03
2017-11-23T07:53:24.931Z,18.93
2017-11-23T07:55:53.200Z,16.83
2017-11-23T07:58:21.494Z,24.20
2017-11-23T08:00:49.760Z,25.40
2017-11-23T08:03:18.077Z,16.13
2017-11-23T08:05:46.366Z,28.07
2017-11-23T08:08:14.644Z,22.20
2017-11-23T08:10:42.939Z,22.53
2017-11-23T08:13:11.989Z,23.93
2017-11-23T08:15:41.067Z,24.57
2017-11-23T08:18:09.337Z,28.50
2017-11-23T08:20:37.635Z,21.03
2017-11-23T08:23:05.922Z,18.47
2017-11-23T08:25:34.221Z,20.07
2017-11-23T08:28:02.516Z,21.63
2017-11-23T08:30:31.549Z,21.70
2017-11-23T08:32:59.819Z,143.97
2017-11-23T08:35:28.112Z,106.97
2017-11-23T08:37:57.242Z,102.43
2017-11-23T08:40:26.002Z,42.83
2017-11-23T08:42:54.293Z,29.30
2017-11-23T08:45:23.064Z,27.53
2017-11-23T08:47:51.341Z,16.20
2017-11-23T08:50:19.630Z,31.40
2017-11-23T08:52:47.923Z,19.77
2017-11-23T08:55:16.201Z,12.73
2017-11-23T08:57:44.875Z,12.43
2017-11-23T09:00:13.462Z,11.23
2017-11-23T09:02:42.519Z,13.37
2017-11-23T09:05:10.833Z,12.33
2017-11-23T09:07:39.138Z,6.97
2017-11-23T09:10:07.401Z,7.00
2017-11-23T09:12:40.566Z,4.63
2017-11-23T09:15:08.851Z,5.23
2017-11-23T09:17:37.106Z,5.13
2017-11-23T09:20:05.414Z,4.43
2017-11-23T09:22:33.668Z,3.70
2017-11-23T09:25:02.696Z,6.93
2017-11-23T09:27:30.983Z,14.60
2017-11-23T09:29:59.249Z,15.83
2017-11-23T09:32:27.516Z,4.30
2017-11-23T09:34:55.795Z,6.53
2017-11-23T09:37:24.072Z,4.03
2017-11-23T09:39:52.352Z,4.03
2017-11-23T09:42:20.616Z,4.13
2017-11-23T09:44:48.865Z,5.57
2017-11-23T09:47:17.160Z,5.70
2017-11-23T09:49:45.445Z,9.53
2017-11-23T09:52:13.729Z,10.73
2017-11-23T09:54:41.984Z,5.80
2017-11-23T09:57:10.252Z,5.17
2017-11-23T09:59:38.578Z,4.37
2017-11-23T10:02:06.854Z,4.27
2017-11-23T10:04:35.166Z,5.30
2017-11-23T10:07:04.189Z,5.60
2017-11-23T10:09:32.454Z,11.53
2017-11-23T10:12:00.752Z,3.60
2017-11-23T10:14:34.565Z,6.17
2017-11-23T10:17:02.854Z,3.40
2017-11-23T10:19:31.131Z,10.47
2017-11-23T10:21:59.395Z,17.20
2017-11-23T10:24:28.587Z,15.33
2017-11-23T10:26:56.859Z,2.70
2017-11-23T10:29:25.147Z,7.47
2017-11-23T10:31:53.418Z,4.30
2017-11-23T10:34:21.681Z,4.50
2017-11-23T10:36:49.980Z,7.00
2017-11-23T10:39:18.257Z,3.73
2017-11-23T10:41:46.539Z,3.97
2017-11-23T10:44:14.833Z,6.90
2017-11-23T10:46:43.116Z,9.60
2017-11-23T10:49:11.387Z,10.43
2017-11-23T10:51:39.679Z,10.20
2017-11-23T10:54:07.957Z,12.43
2017-11-23T10:56:36.263Z,6.70
2017-11-23T10:59:04.560Z,20.60
2017-11-23T11:01:32.835Z,4.27
2017-11-23T11:04:01.875Z,15.40
2017-11-23T11:06:30.173Z,7.70
2017-11-23T11:08:58.502Z,5.70
2017-11-23T11:11:26.869Z,8.73
2017-11-23T11:13:55.132Z,6.30
2017-11-23T11:16:23.402Z,4.63
2017-11-23T11:18:51.961Z,5.43
2017-11-23T11:21:20.232Z,8.60
2017-11-23T11:23:48.520Z,5.80
2017-11-23T11:26:17.282Z,5.83
2017-11-23T11:28:45.583Z,4.53
2017-11-23T11:31:13.845Z,11.77
2017-11-23T11:33:42.123Z,9.30
2017-11-23T11:36:10.394Z,4.93
2017-11-23T11:38:38.681Z,5.10
2017-11-23T11:41:07.016Z,2.30
2017-11-23T11:43:35.285Z,2.93
2017-11-23T11:46:04.349Z,6.00
2017-11-23T11:48:32.630Z,6.80
2017-11-23T11:51:00.930Z,3.77
2017-11-23T11:53:29.193Z,27.77
2017-11-23T11:55:57.456Z,5.47
2017-11-23T11:58:30.993Z,7.53
2017-11-23T12:01:03.514Z,7.53
2017-11-23T12:03:32.503Z,9.77
2017-11-23T12:06:00.774Z,3.50
2017-11-23T12:08:29.051Z,5.50
2017-11-23T12:10:57.329Z,3.40
2017-11-23T12:13:25.611Z,7.43
2017-11-23T12:16:12.856Z,3.40
2017-11-23T12:22:20.080Z,13.00
2017-11-23T12:25:02.765Z,3.13
2017-11-23T12:27:48.572Z,5.93
2017-11-23T12:30:16.865Z,2.77
2017-11-23T12:32:46.156Z,3.93
2017-11-23T12:35:14.717Z,5.33
2017-11-23T12:37:43.016Z,4.10
2017-11-23T12:40:11.297Z,7.13
2017-11-23T12:42:39.566Z,4.70
2017-11-23T12:45:07.839Z,5.30
2017-11-23T12:47:36.124Z,5.53
2017-11-23T12:50:05.621Z,2.80
2017-11-23T12:52:33.898Z,4.60
2017-11-23T12:55:02.175Z,4.30
2017-11-23T12:57:30.456Z,4.07
2017-11-23T12:59:58.717Z,5.00
2017-11-23T13:02:27.007Z,3.40
2017-11-23T13:04:55.274Z,4.40
2017-11-23T13:07:23.558Z,5.03
2017-11-23T13:09:51.846Z,6.43
2017-11-23T13:12:20.887Z,5.80
2017-11-23T13:14:49.202Z,4.53
2017-11-23T13:17:17.479Z,2.43
2017-11-23T13:19:45.810Z,7.13
2017-11-23T13:22:14.104Z,4.90
2017-11-23T13:24:42.366Z,3.07
2017-11-23T13:27:10.650Z,5.07
2017-11-23T13:29:39.712Z,4.70
2017-11-23T13:32:08.616Z,6.03
2017-11-23T13:34:36.929Z,9.60
2017-11-23T13:37:05.194Z,5.80
2017-11-23T13:39:34.245Z,7.37
2017-11-23T13:42:02.511Z,8.03
2017-11-23T13:44:30.770Z,7.70
2017-11-23T13:46:59.069Z,4.10
2017-11-23T13:49:27.324Z,6.00
2017-11-23T13:51:55.615Z,5.23
2017-11-23T13:54:23.873Z,4.23
2017-11-23T13:56:52.179Z,6.87
2017-11-23T13:59:20.470Z,6.80
2017-11-23T14:01:48.751Z,5.50
2017-11-23T14:04:17.043Z,6.63
2017-11-23T14:06:45.702Z,5.07
2017-11-23T14:09:13.971Z,12.63
2017-11-23T14:11:42.251Z,4.57
2017-11-23T14:14:10.545Z,6.53
2017-11-23T14:16:38.817Z,3.33
2017-11-23T14:19:07.080Z,7.73
2017-11-23T14:21:35.376Z,4.70
2017-11-23T14:24:04.755Z,5.33
2017-11-23T14:26:33.273Z,7.43
2017-11-23T14:29:01.555Z,5.47
2017-11-23T14:31:29.828Z,7.93
2017-11-23T14:33:58.115Z,7.80
2017-11-23T14:36:26.377Z,9.00
2017-11-23T14:38:54.677Z,12.07
2017-11-23T14:41:22.954Z,10.90
2017-11-23T14:43:51.610Z,9.67
2017-11-23T14:46:19.930Z,6.63
2017-11-23T14:48:48.187Z,5.53
2017-11-23T14:51:16.490Z,16.00
2017-11-23T14:53:44.829Z,39.23
2017-11-23T14:56:13.107Z,10.33
2017-11-23T14:58:41.384Z,12.37
2017-11-23T15:01:09.675Z,9.67
2017-11-23T15:03:37.978Z,3.33
2017-11-23T15:06:06.271Z,11.33
2017-11-23T15:08:35.314Z,5.43
2017-11-23T15:11:03.639Z,8.50
2017-11-23T15:13:31.900Z,6.03
2017-11-23T15:16:00.230Z,7.03
2017-11-23T15:18:28.527Z,11.63
2017-11-23T15:20:56.800Z,8.53
2017-11-23T15:23:26.338Z,4.93
2017-11-23T15:25:54.628Z,7.53
2017-11-23T15:28:22.912Z,7.23
2017-11-23T15:30:51.197Z,5.20
2017-11-23T15:33:20.258Z,6.07
2017-11-23T15:35:48.545Z,12.90
2017-11-23T15:38:17.571Z,9.10
2017-11-23T15:40:46.630Z,7.80
2017-11-23T15:43:14.919Z,8.67
2017-11-23T15:45:43.196Z,6.73
2017-11-23T15:48:12.219Z,5.20
2017-11-23T15:50:41.246Z,6.23
2017-11-23T15:53:09.508Z,8.23
2017-11-23T15:55:37.801Z,10.17
2017-11-23T15:58:06.070Z,7.70
2017-11-23T16:00:34.336Z,5.87
2017-11-23T16:03:02.611Z,7.80
2017-11-23T16:05:30.872Z,19.50
2017-11-23T16:07:59.946Z,13.87
2017-11-23T16:10:28.234Z,3.73
2017-11-23T16:12:56.512Z,15.83
2017-11-23T16:15:24.812Z,11.70
2017-11-23T16:17:53.859Z,4.60
2017-11-23T16:20:22.133Z,5.60
2017-11-23T16:22:50.444Z,4.30
2017-11-23T16:25:19.486Z,6.60
2017-11-23T16:28:02.504Z,6.63
2017-11-23T16:30:30.782Z,5.10
2017-11-23T16:32:59.056Z,4.70
2017-11-23T16:35:27.344Z,10.93
2017-11-23T16:37:56.526Z,12.20
2017-11-23T16:43:27.165Z,9.80
2017-11-23T16:46:06.489Z,9.67
2017-11-23T16:48:41.069Z,9.57
2017-11-23T16:51:14.809Z,8.60
2017-11-23T16:53:48.502Z,6.93
2017-11-23T16:56:22.191Z,12.30
2017-11-23T16:58:51.576Z,5.50
2017-11-23T17:01:26.397Z,10.17
2017-11-23T17:04:06.363Z,12.33
2017-11-23T17:06:57.630Z,6.20
2017-11-23T17:09:28.896Z,5.37
2017-11-23T17:12:02.759Z,9.47
2017-11-23T17:17:40.547Z,6.77
2017-11-23T17:20:08.831Z,17.17
2017-11-23T17:22:37.107Z,16.10
2017-11-23T17:25:05.404Z,14.67
2017-11-23T17:27:33.697Z,6.77
2017-11-23T17:30:01.984Z,6.93
2017-11-23T17:32:30.292Z,8.13
2017-11-23T17:34:58.598Z,13.30
2017-11-23T17:58:35.643Z,5.70
2017-11-23T18:19:06.832Z,10.07
2017-11-23T18:39:38.790Z,8.97
2017-11-23T19:00:15.910Z,6.93
2017-11-23T19:20:51.179Z,9.17
2017-11-23T19:41:24.882Z,8.47
2017-11-23T20:02:02.973Z,6.10
2017-11-23T20:22:36.180Z,9.43
2017-11-23T20:43:10.350Z,5.47
2017-11-23T21:03:45.391Z,8.97
2017-11-23T21:24:22.880Z,6.93
2017-11-23T21:44:59.117Z,7.07
2017-11-23T22:05:32.121Z,13.33
2017-11-23T22:26:09.577Z,11.23
2017-11-23T22:46:43.865Z,10.90
2017-11-23T23:07:20.706Z,11.23
2017-11-23T23:27:56.894Z,8.10
2017-11-23T23:48:33.090Z,8.00
